createdAt,value
2022-12-22T00:00:31.759Z,90.25
2022-12-22T00:01:31.754Z,90.75
2022-12-22T00:02:31.913Z,90.86
2022-12-22T00:03:31.900Z,91.37
2022-12-22T00:04:31.676Z,91.72
2022-12-22T00:05:31.718Z,91.92
2022-12-22T00:06:31.630Z,92.33
2022-12-22T00:07:31.675Z,92.54
2022-12-22T00:08:31.617Z,92.64
2022-12-22T00:09:31.641Z,92.84
2022-12-22T00:10:31.578Z,93.15
2022-12-22T00:11:31.610Z,93.35
2022-12-22T00:12:31.562Z,93.55
2022-12-22T00:13:31.566Z,93.70
2022-12-22T00:14:31.550Z,93.91
2022-12-22T00:15:31.561Z,94.21
2022-12-22T00:16:31.607Z,94.42
2022-12-22T00:17:31.510Z,94.62
2022-12-22T00:18:31.511Z,94.93
2022-12-22T00:19:31.487Z,95.13
2022-12-22T00:20:31.492Z,95.34
2022-12-22T00:21:31.521Z,95.44
2022-12-22T00:22:31.461Z,95.64
2022-12-22T00:23:31.433Z,95.79
2022-12-22T00:24:31.395Z,96.00
2022-12-22T00:25:31.417Z,96.20
2022-12-22T00:26:31.424Z,96.30
2022-12-22T00:27:31.387Z,96.41
2022-12-22T00:28:31.344Z,96.61
2022-12-22T00:29:31.358Z,96.71
2022-12-22T00:30:31.368Z,96.81
2022-12-22T00:31:31.358Z,97.02
2022-12-22T00:32:31.288Z,97.22
2022-12-22T00:33:31.306Z,97.12
2022-12-22T00:34:32.776Z,97.02
2022-12-22T00:35:31.285Z,97.02
2022-12-22T00:36:31.258Z,97.12
2022-12-22T00:37:31.276Z,97.22
2022-12-22T00:38:31.211Z,97.22
2022-12-22T00:39:31.296Z,97.42
2022-12-22T00:40:31.230Z,97.53
2022-12-22T00:41:31.203Z,97.33
2022-12-22T00:42:31.168Z,97.22
2022-12-22T00:43:31.172Z,97.33
2022-12-22T00:44:31.149Z,97.53
2022-12-22T00:45:31.257Z,97.63
2022-12-22T00:46:31.175Z,97.74
2022-12-22T00:47:31.144Z,97.83
2022-12-22T00:48:31.076Z,98.08
2022-12-22T00:49:31.086Z,98.29
2022-12-22T00:50:31.055Z,98.49
2022-12-22T00:51:31.047Z,98.60
2022-12-22T00:52:31.058Z,98.70
2022-12-22T00:53:31.023Z,98.90
2022-12-22T00:54:30.991Z,99.21
2022-12-22T00:55:31.027Z,99.31
2022-12-22T00:56:30.975Z,99.62
2022-12-22T00:57:31.015Z,99.72
2022-12-22T00:58:30.942Z,99.93
2022-12-22T00:59:30.952Z,99.99
2022-12-22T01:00:30.931Z,99.99
2022-12-22T01:01:31.072Z,99.99
2022-12-22T01:02:31.091Z,99.99
2022-12-22T01:03:31.005Z,99.99
2022-12-22T01:04:30.851Z,99.99
2022-12-22T01:05:30.890Z,99.99
2022-12-22T01:06:30.824Z,99.99
2022-12-22T01:07:30.839Z,99.99
2022-12-22T01:08:30.808Z,99.99
2022-12-22T01:09:30.812Z,99.99
2022-12-22T01:10:30.792Z,99.99
2022-12-22T01:11:30.789Z,99.99
2022-12-22T01:12:30.786Z,99.99
2022-12-22T01:13:30.781Z,99.99
2022-12-22T01:14:30.722Z,99.99
2022-12-22T01:15:30.820Z,99.99
2022-12-22T01:16:30.808Z,99.99
2022-12-22T01:17:30.712Z,99.99
2022-12-22T01:18:30.691Z,99.99
2022-12-22T01:19:30.682Z,99.99
2022-12-22T01:20:30.646Z,99.99
2022-12-22T01:21:30.676Z,99.99
2022-12-22T01:22:30.618Z,99.99
2022-12-22T01:23:30.626Z,99.99
2022-12-22T01:24:30.593Z,99.99
2022-12-22T01:25:30.614Z,99.99
2022-12-22T01:26:30.581Z,99.99
2022-12-22T01:27:30.570Z,99.99
2022-12-22T01:28:30.544Z,99.99
2022-12-22T01:29:30.561Z,99.99
2022-12-22T01:30:30.585Z,99.99
2022-12-22T01:31:30.525Z,99.99
2022-12-22T01:32:30.492Z,99.99
2022-12-22T01:33:30.498Z,99.99
2022-12-22T01:34:30.453Z,99.99
2022-12-22T01:35:30.482Z,99.99
2022-12-22T01:36:30.468Z,99.93
2022-12-22T01:37:30.462Z,99.72
2022-12-22T01:38:30.419Z,99.62
2022-12-22T01:39:30.429Z,99.41
2022-12-22T01:40:30.409Z,99.31
2022-12-22T01:41:30.399Z,99.21
2022-12-22T01:42:30.371Z,99.21
2022-12-22T01:43:30.382Z,99.21
2022-12-22T01:44:30.319Z,99.21
2022-12-22T01:45:30.400Z,99.11
2022-12-22T01:46:30.379Z,99.11
2022-12-22T01:47:30.304Z,99.01
2022-12-22T01:48:30.275Z,98.90
2022-12-22T01:49:30.302Z,98.80
2022-12-22T01:50:30.257Z,98.60
2022-12-22T01:51:30.259Z,98.60
2022-12-22T01:52:30.227Z,98.39
2022-12-22T01:53:30.233Z,98.29
2022-12-22T01:54:30.231Z,98.29
2022-12-22T01:55:30.238Z,98.29
2022-12-22T01:56:30.196Z,98.29
2022-12-22T01:57:30.181Z,98.19
2022-12-22T01:58:30.168Z,98.14
2022-12-22T01:59:30.175Z,98.04
2022-12-22T02:00:30.127Z,97.94
2022-12-22T02:01:30.219Z,98.04
2022-12-22T02:02:30.274Z,98.04
2022-12-22T02:03:30.105Z,97.94
2022-12-22T02:04:30.086Z,97.98
2022-12-22T02:05:30.031Z,97.94
2022-12-22T02:06:30.089Z,97.98
2022-12-22T02:07:30.015Z,97.98
2022-12-22T02:08:30.030Z,98.08
2022-12-22T02:09:29.996Z,97.98
2022-12-22T02:10:29.994Z,97.98
2022-12-22T02:11:29.939Z,97.98
2022-12-22T02:12:29.993Z,98.08
2022-12-22T02:13:29.947Z,98.08
2022-12-22T02:14:30.614Z,97.98
2022-12-22T02:15:29.906Z,98.08
2022-12-22T02:16:29.950Z,97.88
2022-12-22T02:17:29.888Z,97.88
2022-12-22T02:18:29.912Z,97.78
2022-12-22T02:19:29.858Z,97.78
2022-12-22T02:20:29.871Z,97.78
2022-12-22T02:21:29.831Z,97.67
2022-12-22T02:22:29.856Z,97.57
2022-12-22T02:23:29.808Z,97.47
2022-12-22T02:24:29.809Z,97.47
2022-12-22T02:25:29.792Z,97.37
2022-12-22T02:26:29.778Z,97.37
2022-12-22T02:27:29.741Z,97.47
2022-12-22T02:28:29.769Z,97.47
2022-12-22T02:29:29.727Z,97.47
2022-12-22T02:30:29.722Z,97.57
2022-12-22T02:31:29.775Z,97.57
2022-12-22T02:32:29.701Z,97.57
2022-12-22T02:33:29.691Z,97.57
2022-12-22T02:34:29.674Z,97.57
2022-12-22T02:35:29.636Z,97.47
2022-12-22T02:36:29.638Z,97.47
2022-12-22T02:37:29.629Z,97.47
2022-12-22T02:38:29.613Z,97.47
2022-12-22T02:39:29.589Z,97.47
2022-12-22T02:40:29.595Z,97.47
2022-12-22T02:41:29.543Z,97.37
2022-12-22T02:42:29.561Z,97.37
2022-12-22T02:43:29.546Z,97.47
2022-12-22T02:44:29.552Z,97.37
2022-12-22T02:45:29.517Z,97.37
2022-12-22T02:46:29.560Z,97.37
2022-12-22T02:47:29.462Z,97.37
2022-12-22T02:48:29.486Z,97.37
2022-12-22T02:49:29.445Z,97.37
2022-12-22T02:50:29.496Z,97.37
2022-12-22T02:51:29.439Z,97.47
2022-12-22T02:52:29.444Z,97.47
2022-12-22T02:53:29.390Z,97.47
2022-12-22T02:54:29.434Z,97.47
2022-12-22T02:55:29.382Z,97.47
2022-12-22T02:56:29.380Z,97.57
2022-12-22T02:57:29.333Z,97.57
2022-12-22T02:58:29.343Z,97.67
2022-12-22T02:59:29.338Z,97.57
2022-12-22T03:00:29.330Z,97.57
2022-12-22T03:01:29.464Z,97.57
2022-12-22T03:02:29.498Z,97.57
2022-12-22T03:03:29.458Z,97.57
2022-12-22T03:04:29.295Z,97.57
2022-12-22T03:05:29.234Z,97.47
2022-12-22T03:06:29.280Z,97.57
2022-12-22T03:07:29.208Z,97.57
2022-12-22T03:08:29.239Z,97.57
2022-12-22T03:09:29.193Z,97.57
2022-12-22T03:10:29.195Z,97.57
2022-12-22T03:11:29.161Z,97.67
2022-12-22T03:12:29.182Z,97.57
2022-12-22T03:13:29.136Z,97.57
2022-12-22T03:14:29.148Z,97.57
2022-12-22T03:15:29.103Z,97.57
2022-12-22T03:16:29.164Z,97.57
2022-12-22T03:17:29.092Z,97.47
2022-12-22T03:18:29.089Z,97.47
2022-12-22T03:19:29.065Z,97.47
2022-12-22T03:20:29.053Z,97.37
2022-12-22T03:21:29.014Z,97.37
2022-12-22T03:22:29.024Z,97.37
2022-12-22T03:23:29.000Z,97.27
2022-12-22T03:24:29.017Z,97.27
2022-12-22T03:25:28.966Z,97.27
2022-12-22T03:26:28.965Z,97.16
2022-12-22T03:27:28.944Z,97.12
2022-12-22T03:28:28.951Z,97.22
2022-12-22T03:29:28.909Z,97.33
2022-12-22T03:30:28.926Z,97.42
2022-12-22T03:31:28.935Z,97.63
2022-12-22T03:32:28.907Z,97.83
2022-12-22T03:33:28.865Z,97.98
2022-12-22T03:34:28.868Z,98.19
2022-12-22T03:35:28.862Z,98.29
2022-12-22T03:36:28.857Z,98.39
2022-12-22T03:37:28.801Z,98.60
2022-12-22T03:38:28.827Z,98.80
2022-12-22T03:39:28.773Z,98.90
2022-12-22T03:40:28.805Z,99.01
2022-12-22T03:41:28.738Z,99.21
2022-12-22T03:42:28.756Z,99.21
2022-12-22T03:43:28.743Z,99.31
2022-12-22T03:44:28.734Z,99.31
2022-12-22T03:45:28.689Z,99.52
2022-12-22T03:46:28.760Z,99.62
2022-12-22T03:47:28.665Z,99.72
2022-12-22T03:48:28.683Z,99.72
2022-12-22T03:49:28.663Z,99.72
2022-12-22T03:50:28.653Z,99.82
2022-12-22T03:51:28.628Z,99.82
2022-12-22T03:52:28.635Z,99.82
2022-12-22T03:53:28.588Z,99.93
2022-12-22T03:54:28.597Z,99.99
2022-12-22T03:55:28.574Z,99.99
2022-12-22T03:56:28.565Z,99.99
2022-12-22T03:57:28.544Z,99.99
2022-12-22T03:58:28.549Z,99.99
2022-12-22T03:59:28.506Z,99.99
2022-12-22T04:00:28.562Z,99.99
2022-12-22T04:01:28.586Z,99.99
2022-12-22T04:02:28.620Z,99.99
2022-12-22T04:03:28.523Z,99.99
2022-12-22T04:04:28.461Z,99.99
2022-12-22T04:05:28.414Z,99.99
2022-12-22T04:06:28.455Z,99.99
2022-12-22T04:07:28.385Z,99.99
2022-12-22T04:08:28.421Z,99.99
2022-12-22T04:09:28.403Z,99.99
2022-12-22T04:10:28.373Z,99.99
2022-12-22T04:11:28.337Z,99.99
2022-12-22T04:12:28.386Z,99.99
2022-12-22T04:13:28.333Z,99.99
2022-12-22T04:14:33.821Z,99.99
2022-12-22T04:15:28.293Z,99.99
2022-12-22T04:16:28.381Z,99.99
2022-12-22T04:17:28.283Z,99.99
2022-12-22T04:18:28.282Z,99.99
2022-12-22T04:19:28.246Z,99.99
2022-12-22T04:20:28.277Z,99.99
2022-12-22T04:21:28.225Z,99.99
2022-12-22T04:22:28.207Z,99.99
2022-12-22T04:23:28.201Z,99.99
2022-12-22T04:24:28.192Z,99.99
2022-12-22T04:25:28.150Z,99.99
2022-12-22T04:26:28.175Z,99.99
2022-12-22T04:27:28.156Z,99.99
2022-12-22T04:28:28.165Z,99.99
2022-12-22T04:29:28.094Z,99.99
2022-12-22T04:30:28.127Z,99.99
2022-12-22T04:31:28.100Z,99.99
2022-12-22T04:32:28.121Z,99.99
2022-12-22T04:33:28.087Z,99.99
2022-12-22T04:34:28.083Z,99.99
2022-12-22T04:35:28.016Z,99.99
2022-12-22T04:36:28.043Z,99.99
2022-12-22T04:37:28.004Z,99.99
2022-12-22T04:38:27.995Z,99.99
2022-12-22T04:39:27.959Z,99.99
2022-12-22T04:40:27.982Z,99.99
2022-12-22T04:41:27.953Z,99.99
2022-12-22T04:42:27.961Z,99.99
2022-12-22T04:43:27.902Z,99.99
2022-12-22T04:44:27.948Z,99.99
2022-12-22T04:45:27.923Z,99.99
2022-12-22T04:46:28.048Z,99.99
2022-12-22T04:47:27.849Z,99.99
2022-12-22T04:48:27.873Z,99.99
2022-12-22T04:49:27.853Z,99.99
2022-12-22T04:50:27.836Z,99.99
2022-12-22T04:51:27.810Z,99.99
2022-12-22T04:52:27.807Z,99.99
2022-12-22T04:53:27.774Z,99.99
2022-12-22T04:54:27.806Z,99.99
2022-12-22T04:55:27.779Z,99.99
2022-12-22T04:56:27.768Z,99.99
2022-12-22T04:57:27.725Z,99.99
2022-12-22T04:58:27.747Z,99.99
2022-12-22T04:59:27.703Z,99.99
2022-12-22T05:00:27.743Z,99.99
2022-12-22T05:01:27.729Z,99.99
2022-12-22T05:02:27.762Z,99.99
2022-12-22T05:03:27.681Z,99.99
2022-12-22T05:04:27.665Z,99.99
2022-12-22T05:05:27.667Z,99.99
2022-12-22T05:06:27.628Z,99.99
2022-12-22T05:07:27.593Z,99.99
2022-12-22T05:08:27.591Z,99.98
2022-12-22T05:09:27.562Z,99.88
2022-12-22T05:10:27.564Z,99.88
2022-12-22T05:11:27.581Z,99.78
2022-12-22T05:12:27.554Z,99.47
2022-12-22T05:13:27.495Z,99.57
2022-12-22T05:14:27.526Z,99.47
2022-12-22T05:15:27.474Z,99.37
2022-12-22T05:16:27.507Z,99.37
2022-12-22T05:17:27.478Z,99.02
2022-12-22T05:18:27.461Z,98.91
2022-12-22T05:19:30.682Z,98.81
2022-12-22T05:20:27.435Z,98.61
2022-12-22T05:21:27.398Z,98.61
2022-12-22T05:22:27.439Z,98.71
2022-12-22T05:23:27.392Z,98.50
2022-12-22T05:24:27.372Z,98.40
2022-12-22T05:25:32.922Z,98.20
2022-12-22T05:26:27.331Z,98.30
2022-12-22T05:27:27.352Z,98.30
2022-12-22T05:28:27.291Z,98.30
2022-12-22T05:29:27.348Z,98.40
2022-12-22T05:30:27.318Z,98.30
2022-12-22T05:31:27.394Z,98.10
2022-12-22T05:32:27.254Z,97.99
2022-12-22T05:33:27.275Z,98.10
2022-12-22T05:34:27.230Z,97.99
2022-12-22T05:35:27.243Z,97.89
2022-12-22T05:36:27.191Z,97.69
2022-12-22T05:37:27.237Z,97.58
2022-12-22T05:38:27.171Z,97.49
2022-12-22T05:39:27.216Z,97.38
2022-12-22T05:40:27.147Z,97.17
2022-12-22T05:41:27.149Z,97.08
2022-12-22T05:42:27.108Z,96.87
2022-12-22T05:43:27.150Z,96.77
2022-12-22T05:44:27.114Z,96.77
2022-12-22T05:45:27.154Z,96.77
2022-12-22T05:46:27.232Z,96.87
2022-12-22T05:47:27.080Z,96.97
2022-12-22T05:48:31.014Z,97.08
2022-12-22T05:49:27.045Z,97.08
2022-12-22T05:50:27.052Z,97.08
2022-12-22T05:51:27.030Z,97.08
2022-12-22T05:52:26.983Z,96.97
2022-12-22T05:53:26.986Z,96.97
2022-12-22T05:54:26.965Z,96.97
2022-12-22T05:55:27.005Z,96.97
2022-12-22T05:56:26.935Z,96.97
2022-12-22T05:57:26.927Z,96.97
2022-12-22T05:58:26.914Z,96.87
2022-12-22T05:59:26.917Z,96.77
2022-12-22T06:00:26.890Z,96.67
2022-12-22T06:01:26.937Z,96.46
2022-12-22T06:02:26.977Z,96.26
2022-12-22T06:03:27.053Z,96.05
2022-12-22T06:04:26.937Z,95.95
2022-12-22T06:05:26.853Z,95.54
2022-12-22T06:06:26.801Z,95.50
2022-12-22T06:07:26.812Z,95.50
2022-12-22T06:08:26.776Z,95.70
2022-12-22T06:09:26.804Z,95.60
2022-12-22T06:10:26.735Z,95.60
2022-12-22T06:11:26.780Z,95.50
2022-12-22T06:12:26.765Z,95.29
2022-12-22T06:13:26.725Z,95.29
2022-12-22T06:14:26.716Z,94.98
2022-12-22T06:15:26.672Z,94.68
2022-12-22T06:16:26.765Z,94.37
2022-12-22T06:17:26.657Z,94.37
2022-12-22T06:18:26.651Z,94.07
2022-12-22T06:19:26.656Z,94.17
2022-12-22T06:20:26.644Z,93.76
2022-12-22T06:21:26.599Z,93.86
2022-12-22T06:22:26.600Z,93.55
2022-12-22T06:23:26.564Z,93.35
2022-12-22T06:24:26.586Z,93.15
2022-12-22T06:25:26.589Z,93.25
2022-12-22T06:26:26.571Z,93.25
2022-12-22T06:27:26.540Z,93.05
2022-12-22T06:28:26.558Z,92.74
2022-12-22T06:29:26.503Z,92.64
2022-12-22T06:30:32.984Z,92.43
2022-12-22T06:31:26.504Z,92.43
2022-12-22T06:32:26.495Z,91.92
2022-12-22T06:33:26.457Z,92.13
2022-12-22T06:34:26.455Z,92.23
2022-12-22T06:35:26.423Z,92.33
2022-12-22T06:36:26.403Z,92.02
2022-12-22T06:37:26.403Z,91.27
2022-12-22T06:38:26.412Z,91.27
2022-12-22T06:39:26.351Z,91.06
2022-12-22T06:40:26.366Z,91.06
2022-12-22T06:41:26.341Z,90.75
2022-12-22T06:42:26.334Z,90.86
2022-12-22T06:43:26.293Z,90.86
2022-12-22T06:44:26.297Z,90.45
2022-12-22T06:45:26.272Z,90.35
2022-12-22T06:46:26.374Z,90.25
2022-12-22T06:47:26.262Z,90.25
2022-12-22T06:48:26.286Z,89.84
2022-12-22T06:49:26.212Z,89.63
2022-12-22T06:50:26.220Z,89.53
2022-12-22T06:51:26.212Z,89.63
2022-12-22T06:52:26.227Z,89.73
2022-12-22T06:53:26.175Z,89.73
2022-12-22T06:54:26.662Z,89.53
2022-12-22T06:55:26.163Z,89.32
2022-12-22T06:56:26.161Z,89.32
2022-12-22T06:57:26.115Z,89.43
2022-12-22T06:58:26.113Z,89.02
2022-12-22T06:59:26.079Z,89.02
2022-12-22T07:00:26.120Z,88.92
2022-12-22T07:01:26.204Z,88.41
2022-12-22T07:02:26.244Z,88.67
2022-12-22T07:03:26.274Z,88.78
2022-12-22T07:04:26.031Z,88.57
2022-12-22T07:05:25.987Z,88.47
2022-12-22T07:06:26.034Z,88.47
2022-12-22T07:07:25.977Z,88.67
2022-12-22T07:08:25.994Z,88.82
2022-12-22T07:09:26.741Z,88.61
2022-12-22T07:10:25.965Z,88.61
2022-12-22T07:11:25.924Z,88.41
2022-12-22T07:12:25.925Z,88.00
2022-12-22T07:13:25.893Z,87.65
2022-12-22T07:14:25.956Z,87.45
2022-12-22T07:15:25.865Z,87.35
2022-12-22T07:16:25.966Z,87.14
2022-12-22T07:17:25.890Z,86.73
2022-12-22T07:18:25.890Z,86.63
2022-12-22T07:19:25.840Z,86.73
2022-12-22T07:20:25.837Z,86.83
2022-12-22T07:21:25.790Z,86.73
2022-12-22T07:22:30.507Z,86.94
2022-12-22T07:23:25.804Z,87.14
2022-12-22T07:24:26.007Z,86.83
2022-12-22T07:25:25.734Z,87.24
2022-12-22T07:26:25.749Z,87.55
2022-12-22T07:27:25.723Z,87.70
2022-12-22T07:28:25.746Z,87.90
2022-12-22T07:29:25.685Z,87.90
2022-12-22T07:30:25.669Z,87.38
2022-12-22T07:31:25.693Z,87.49
2022-12-22T07:32:25.664Z,87.49
2022-12-22T07:33:25.619Z,87.59
2022-12-22T07:34:25.665Z,87.49
2022-12-22T07:35:25.617Z,87.70
2022-12-22T07:36:25.615Z,87.90
2022-12-22T07:37:25.595Z,87.90
2022-12-22T07:38:25.585Z,88.20
2022-12-22T07:39:25.582Z,88.00
2022-12-22T07:40:25.556Z,88.00
2022-12-22T07:41:25.536Z,87.79
2022-12-22T07:42:25.521Z,88.00
2022-12-22T07:43:25.478Z,87.90
2022-12-22T07:44:25.515Z,87.90
2022-12-22T07:45:25.486Z,87.90
2022-12-22T07:46:25.532Z,87.79
2022-12-22T07:47:30.052Z,87.79
2022-12-22T07:48:25.477Z,87.49
2022-12-22T07:49:25.450Z,87.70
2022-12-22T07:50:25.432Z,87.79
2022-12-22T07:51:25.401Z,87.70
2022-12-22T07:52:25.390Z,87.29
2022-12-22T07:53:25.337Z,86.98
2022-12-22T07:54:25.362Z,87.08
2022-12-22T07:55:25.368Z,86.88
2022-12-22T07:56:25.338Z,86.67
2022-12-22T07:57:25.293Z,86.53
2022-12-22T07:58:25.315Z,86.63
2022-12-22T07:59:25.277Z,86.33
2022-12-22T08:00:25.387Z,86.02
2022-12-22T08:01:25.348Z,86.12
2022-12-22T08:02:25.365Z,86.12
2022-12-22T08:03:25.311Z,86.12
2022-12-22T08:04:25.372Z,85.92
2022-12-22T08:05:25.189Z,85.71
2022-12-22T08:06:25.220Z,85.61
2022-12-22T08:07:25.166Z,85.71
2022-12-22T08:08:25.249Z,85.51
2022-12-22T08:09:25.140Z,85.51
2022-12-22T08:10:25.178Z,85.51
2022-12-22T08:11:25.142Z,85.61
2022-12-22T08:12:25.113Z,85.92
2022-12-22T08:13:25.176Z,85.82
2022-12-22T08:14:25.151Z,86.22
2022-12-22T08:15:25.081Z,86.53
2022-12-22T08:16:25.189Z,86.53
2022-12-22T08:17:25.037Z,86.73
2022-12-22T08:18:25.046Z,86.63
2022-12-22T08:19:24.991Z,86.63
2022-12-22T08:20:25.025Z,86.63
2022-12-22T08:21:25.078Z,86.43
2022-12-22T08:22:24.978Z,86.53
2022-12-22T08:23:24.951Z,86.43
2022-12-22T08:24:24.956Z,86.73
2022-12-22T08:25:24.937Z,86.94
2022-12-22T08:26:24.971Z,87.24
2022-12-22T08:27:26.294Z,87.35
2022-12-22T08:28:24.898Z,87.35
2022-12-22T08:29:24.884Z,87.76
2022-12-22T08:30:24.886Z,87.85
2022-12-22T08:31:24.864Z,88.00
2022-12-22T08:32:24.880Z,88.20
2022-12-22T08:33:24.829Z,88.00
2022-12-22T08:34:24.843Z,87.79
2022-12-22T08:35:24.794Z,88.00
2022-12-22T08:36:24.788Z,88.00
2022-12-22T08:37:24.790Z,88.31
2022-12-22T08:38:24.795Z,88.41
2022-12-22T08:39:24.756Z,88.82
2022-12-22T08:40:24.823Z,89.32
2022-12-22T08:41:24.748Z,89.53
2022-12-22T08:42:24.737Z,89.84
2022-12-22T08:43:24.692Z,90.29
2022-12-22T08:44:24.720Z,90.29
2022-12-22T08:45:24.713Z,90.29
2022-12-22T08:46:24.693Z,90.59
2022-12-22T08:47:24.690Z,90.80
2022-12-22T08:48:24.652Z,90.90
2022-12-22T08:49:24.616Z,90.90
2022-12-22T08:50:24.640Z,91.41
2022-12-22T08:51:24.571Z,91.41
2022-12-22T08:52:24.621Z,91.72
2022-12-22T08:54:02.632Z,91.92
2022-12-22T08:54:24.555Z,91.82
2022-12-22T08:55:24.512Z,91.92
2022-12-22T08:56:24.555Z,91.92
2022-12-22T08:57:24.492Z,92.23
2022-12-22T08:58:24.525Z,92.17
2022-12-22T08:59:24.482Z,92.37
2022-12-22T09:00:24.493Z,92.58
2022-12-22T09:01:24.553Z,92.68
2022-12-22T09:02:24.619Z,92.58
2022-12-22T09:03:24.481Z,92.58
2022-12-22T09:04:24.435Z,92.88
2022-12-22T09:05:24.393Z,93.09
2022-12-22T09:06:27.577Z,93.19
2022-12-22T09:07:24.389Z,93.19
2022-12-22T09:08:24.365Z,93.50
2022-12-22T09:09:24.328Z,93.50
2022-12-22T09:10:24.328Z,93.70
2022-12-22T09:11:24.300Z,94.01
2022-12-22T09:12:24.314Z,93.91
2022-12-22T09:13:24.268Z,94.11
2022-12-22T09:14:24.291Z,94.42
2022-12-22T09:15:24.242Z,94.62
2022-12-22T09:16:24.335Z,95.07
2022-12-22T09:17:24.233Z,95.28
2022-12-22T09:18:24.226Z,95.38
2022-12-22T09:19:24.209Z,95.79
2022-12-22T09:20:24.197Z,96.00
2022-12-22T09:21:24.157Z,96.41
2022-12-22T09:22:28.446Z,96.61
2022-12-22T09:23:24.138Z,97.06
2022-12-22T09:24:24.139Z,97.37
2022-12-22T09:25:24.100Z,97.78
2022-12-22T09:26:24.157Z,97.98
2022-12-22T09:27:24.090Z,98.29
2022-12-22T09:28:24.093Z,98.49
2022-12-22T09:29:24.060Z,98.70
2022-12-22T09:30:24.063Z,98.80
2022-12-22T09:31:24.133Z,98.95
2022-12-22T09:32:24.037Z,98.95
2022-12-22T09:33:25.768Z,99.05
2022-12-22T09:34:24.028Z,99.36
2022-12-22T09:35:23.981Z,99.46
2022-12-22T09:36:23.998Z,99.66
2022-12-22T09:37:23.945Z,99.77
2022-12-22T09:38:23.989Z,99.87
2022-12-22T09:39:28.781Z,99.98
2022-12-22T09:40:23.945Z,99.99
2022-12-22T09:41:23.882Z,99.99
2022-12-22T09:42:23.960Z,99.99
2022-12-22T09:43:23.897Z,99.99
2022-12-22T09:44:23.920Z,99.99
2022-12-22T09:45:23.828Z,99.99
2022-12-22T09:46:23.910Z,99.99
2022-12-22T09:47:23.929Z,99.99
2022-12-22T09:48:23.825Z,99.99
2022-12-22T09:49:23.820Z,99.99
2022-12-22T09:50:23.824Z,99.99
2022-12-22T09:51:26.986Z,99.99
2022-12-22T09:52:23.777Z,99.99
2022-12-22T09:53:23.747Z,99.99
2022-12-22T09:54:23.748Z,99.99
2022-12-22T09:55:23.716Z,99.99
2022-12-22T09:56:23.723Z,99.99
2022-12-22T09:57:23.717Z,99.99
2022-12-22T09:58:26.505Z,99.99
2022-12-22T09:59:23.654Z,99.99
2022-12-22T10:00:23.651Z,99.99
2022-12-22T10:01:23.737Z,99.99
2022-12-22T10:02:23.704Z,99.99
2022-12-22T10:03:23.655Z,99.99
2022-12-22T10:04:23.651Z,99.99
2022-12-22T10:05:23.593Z,99.99
2022-12-22T10:06:23.582Z,99.99
2022-12-22T10:07:23.555Z,99.99
2022-12-22T10:08:23.546Z,99.93
2022-12-22T10:10:23.538Z,99.72
2022-12-22T10:11:23.495Z,99.52
2022-12-22T10:12:23.520Z,99.41
2022-12-22T10:13:23.480Z,99.41
2022-12-22T10:14:23.482Z,99.16
2022-12-22T10:15:23.466Z,99.06
2022-12-22T10:16:23.480Z,98.86
2022-12-22T10:17:23.560Z,98.86
2022-12-22T10:18:23.426Z,98.96
2022-12-22T10:19:23.381Z,98.96
2022-12-22T10:20:23.387Z,99.06
2022-12-22T10:21:23.398Z,99.16
2022-12-22T10:22:23.390Z,99.37
2022-12-22T10:23:23.351Z,99.37
2022-12-22T10:24:23.352Z,99.37
2022-12-22T10:25:23.313Z,99.37
2022-12-22T10:26:28.779Z,99.47
2022-12-22T10:27:28.711Z,99.62
2022-12-22T10:28:23.336Z,99.37
2022-12-22T10:29:23.304Z,99.37
2022-12-22T10:30:23.234Z,99.37
2022-12-22T10:31:23.379Z,99.47
2022-12-22T10:32:23.301Z,99.57
2022-12-22T10:33:23.237Z,99.78
2022-12-22T10:34:23.205Z,99.99
2022-12-22T10:35:23.201Z,99.99
2022-12-22T10:36:23.166Z,99.99
2022-12-22T10:37:23.216Z,99.99
2022-12-22T10:38:23.152Z,99.99
2022-12-22T10:39:23.179Z,99.99
2022-12-22T10:40:23.169Z,99.99
2022-12-22T10:41:23.166Z,99.99
2022-12-22T10:42:23.155Z,99.99
2022-12-22T10:43:23.093Z,99.99
2022-12-22T10:44:23.055Z,99.99
2022-12-22T10:45:23.065Z,99.99
2022-12-22T10:46:23.077Z,99.99
2022-12-22T10:47:23.074Z,99.99
2022-12-22T10:48:22.992Z,99.99
2022-12-22T10:49:23.040Z,99.99
2022-12-22T10:50:22.958Z,99.99
2022-12-22T10:51:22.985Z,99.99
2022-12-22T10:52:29.500Z,99.99
2022-12-22T10:53:23.028Z,99.99
2022-12-22T10:54:22.932Z,99.99
2022-12-22T10:55:22.965Z,99.99
2022-12-22T10:56:22.912Z,99.99
2022-12-22T10:57:22.897Z,99.99
2022-12-22T10:58:22.871Z,99.99
2022-12-22T10:59:22.897Z,99.99
2022-12-22T11:00:22.856Z,99.99
2022-12-22T11:01:22.940Z,99.93
2022-12-22T11:02:23.252Z,99.52
2022-12-22T11:03:24.742Z,99.21
2022-12-22T11:04:22.838Z,98.96
2022-12-22T11:05:22.827Z,98.65
2022-12-22T11:06:22.767Z,98.55
2022-12-22T11:07:22.840Z,98.55
2022-12-22T11:08:22.744Z,98.65
2022-12-22T11:09:38.213Z,98.75
2022-12-22T11:10:22.750Z,98.96
2022-12-22T11:11:22.713Z,99.16
2022-12-22T11:12:22.665Z,99.57
2022-12-22T11:13:22.685Z,99.88
2022-12-22T11:14:22.642Z,99.99
2022-12-22T11:15:24.824Z,99.99
2022-12-22T11:16:22.707Z,99.99
2022-12-22T11:17:22.644Z,99.99
2022-12-22T11:18:22.623Z,99.99
2022-12-22T11:19:22.600Z,99.99
2022-12-22T11:20:22.587Z,99.99
2022-12-22T11:21:24.544Z,99.99
2022-12-22T11:22:22.563Z,99.99
2022-12-22T11:23:22.546Z,99.99
2022-12-22T11:24:22.532Z,99.99
2022-12-22T11:25:22.517Z,99.99
2022-12-22T11:26:22.489Z,99.99
2022-12-22T11:27:22.521Z,99.99
2022-12-22T11:28:22.476Z,99.99
2022-12-22T11:29:22.472Z,99.99
2022-12-22T11:30:22.461Z,99.99
2022-12-22T11:31:22.524Z,99.99
2022-12-22T11:32:22.419Z,99.99
2022-12-22T11:33:22.412Z,99.99
2022-12-22T11:34:22.393Z,99.99
2022-12-22T11:35:22.433Z,99.99
2022-12-22T11:36:22.357Z,99.99
2022-12-22T11:37:22.393Z,99.99
2022-12-22T11:38:22.316Z,99.99
2022-12-22T11:39:22.327Z,99.99
2022-12-22T11:40:22.332Z,99.99
2022-12-22T11:41:22.328Z,99.99
2022-12-22T11:42:22.292Z,99.99
2022-12-22T11:43:22.275Z,99.99
2022-12-22T11:44:22.270Z,99.99
2022-12-22T11:45:22.300Z,99.99
2022-12-22T11:46:22.291Z,99.99
2022-12-22T11:47:22.230Z,99.99
2022-12-22T11:48:22.207Z,99.99
2022-12-22T11:49:22.187Z,99.99
2022-12-22T11:50:59.767Z,99.99
2022-12-22T11:51:27.334Z,99.99
2022-12-22T11:52:22.168Z,99.99
2022-12-22T11:53:22.147Z,99.99
2022-12-22T11:54:22.098Z,99.99
2022-12-22T11:55:22.121Z,99.99
2022-12-22T11:56:22.077Z,99.99
2022-12-22T11:57:22.117Z,99.99
2022-12-22T11:58:22.050Z,99.99
2022-12-22T11:59:22.064Z,99.99
2022-12-22T12:00:28.344Z,99.99
2022-12-22T12:01:25.986Z,99.99
2022-12-22T12:02:22.150Z,99.99
2022-12-22T12:03:22.168Z,99.99
2022-12-22T12:04:22.083Z,99.99
2022-12-22T12:05:21.980Z,99.99
2022-12-22T12:06:21.981Z,99.99
2022-12-22T12:07:25.671Z,99.99
2022-12-22T12:08:21.927Z,99.99
2022-12-22T12:09:21.928Z,99.99
2022-12-22T12:10:21.887Z,99.99
2022-12-22T12:11:21.923Z,99.99
2022-12-22T12:12:21.912Z,99.99
2022-12-22T12:13:28.668Z,99.99
2022-12-22T12:14:21.868Z,99.99
2022-12-22T12:15:21.895Z,99.99
2022-12-22T12:16:21.847Z,99.99
2022-12-22T12:17:21.840Z,99.99
2022-12-22T12:18:21.803Z,99.99
2022-12-22T12:19:26.817Z,99.99
2022-12-22T12:20:21.782Z,99.99
2022-12-22T12:21:21.792Z,99.99
2022-12-22T12:22:21.763Z,99.99
2022-12-22T12:23:21.800Z,99.99
2022-12-22T12:24:21.706Z,99.99
2022-12-22T12:25:25.761Z,99.99
2022-12-22T12:26:21.715Z,99.99
2022-12-22T12:27:21.675Z,99.99
2022-12-22T12:28:21.660Z,99.99
2022-12-22T12:29:21.689Z,99.99
2022-12-22T12:30:37.974Z,99.99
2022-12-22T12:31:26.319Z,99.99
2022-12-22T12:32:21.645Z,99.99
2022-12-22T12:33:21.670Z,99.99
2022-12-22T12:34:21.568Z,99.99
2022-12-22T12:35:21.602Z,99.99
2022-12-22T12:36:21.546Z,99.99
2022-12-22T12:37:26.337Z,99.99
2022-12-22T12:38:56.866Z,99.99
2022-12-22T12:39:21.589Z,99.99
2022-12-22T12:40:21.509Z,99.99
2022-12-22T12:41:21.513Z,99.99
2022-12-22T12:42:21.463Z,99.99
2022-12-22T12:43:21.485Z,99.99
2022-12-22T12:44:21.441Z,99.98
2022-12-22T12:45:21.445Z,99.68
2022-12-22T12:46:21.435Z,99.47
2022-12-22T12:47:21.445Z,99.47
2022-12-22T12:48:21.376Z,99.47
2022-12-22T12:49:26.266Z,99.68
2022-12-22T12:50:21.386Z,99.68
2022-12-22T12:51:21.392Z,99.88
2022-12-22T12:52:21.324Z,99.78
2022-12-22T12:53:21.382Z,99.68